LIRZ/PEG METAR and TAF weather

Enter ICAO airport designator
Station Type Date Time Source
LIRZ METAR 2019/12/07 04:50 UTC NOAA

LIRZ 070450Z AUTO 22003KT //// FEW019/// BKN068/// 08/08 Q1020


Station Type Date Time Source
LIRZ Decoded METAR 2019/12/07 04:50 UTC NOAA

Perugia, Italy (LIRZ) 43-05N 012-30E 205M
Dec 06, 2019 - 11:50 PM EST / 2019.12.07 0450 UTC
Wind: from the SW (220 degrees) at 3 MPH (3 KT):0
Sky conditions: mostly cloudy
Temperature: 46 F (8 C)
Dew Point: 46 F (8 C)
Relative Humidity: 100%
Pressure (altimeter): 30.12 in. Hg (1020 hPa)
ob: LIRZ 070450Z AUTO 22003KT //// FEW019/// BKN068/// 08/08 Q1020
cycle: 5

Station Type Date Time Source
LIRZ TAF 2019/12/06 18:21 UTC NOAA

TAF LIRZ 061700Z 0618/0718 VRB05KT 9999 SCT040
TEMPO 0618/0624 SHRA

Example: see airport list